createdAt,value
2023-10-06T00:00:45.505Z,88.50
2023-10-06T00:03:12.549Z,88.60
2023-10-06T00:05:40.191Z,88.70
2023-10-06T00:08:16.718Z,88.80
2023-10-06T00:10:47.093Z,88.90
2023-10-06T00:13:24.918Z,88.90
2023-10-06T00:15:53.431Z,88.90
2023-10-06T00:18:21.157Z,88.80
2023-10-06T00:20:50.050Z,88.90
2023-10-06T00:23:24.357Z,88.90
2023-10-06T00:25:56.527Z,89.00
2023-10-06T00:28:27.413Z,89.00
2023-10-06T00:30:59.383Z,89.10
2023-10-06T00:33:33.848Z,89.00
2023-10-06T00:36:15.713Z,89.00
2023-10-06T00:38:48.395Z,88.90
2023-10-06T00:41:15.789Z,88.70
2023-10-06T00:43:45.365Z,88.70
2023-10-06T00:46:14.271Z,88.70
2023-10-06T00:48:42.935Z,88.60
2023-10-06T00:51:23.433Z,88.50
2023-10-06T00:53:55.970Z,88.50
2023-10-06T00:56:26.807Z,88.50
2023-10-06T00:58:54.530Z,88.30
2023-10-06T01:01:23.442Z,88.30
2023-10-06T01:04:18.262Z,88.40
2023-10-06T01:06:45.303Z,88.30
2023-10-06T01:09:17.515Z,88.40
2023-10-06T01:11:52.750Z,88.30
2023-10-06T01:14:27.001Z,88.40
2023-10-06T01:17:09.678Z,88.30
2023-10-06T01:19:36.796Z,88.20
2023-10-06T01:22:21.208Z,88.40
2023-10-06T01:24:48.180Z,88.30
2023-10-06T01:27:15.160Z,88.50
2023-10-06T01:29:43.969Z,88.50
2023-10-06T01:32:11.174Z,88.50
2023-10-06T01:34:42.285Z,88.50
2023-10-06T01:37:13.154Z,88.50
2023-10-06T01:39:41.751Z,88.70
2023-10-06T01:42:09.676Z,88.60
2023-10-06T01:44:37.119Z,88.40
2023-10-06T01:47:06.274Z,88.20
2023-10-06T01:49:37.817Z,88.50
2023-10-06T01:52:09.620Z,88.50
2023-10-06T01:54:37.553Z,88.40
2023-10-06T01:57:12.581Z,88.00
2023-10-06T01:59:39.598Z,88.50
2023-10-06T02:02:14.724Z,88.50
2023-10-06T02:04:46.695Z,88.40
2023-10-06T02:07:14.471Z,88.50
2023-10-06T02:09:41.560Z,88.40
2023-10-06T02:12:08.585Z,88.40
2023-10-06T02:14:35.559Z,88.30
2023-10-06T02:17:10.377Z,88.20
2023-10-06T02:19:38.754Z,88.40
2023-10-06T02:22:07.741Z,88.30
2023-10-06T02:24:35.041Z,88.30
2023-10-06T02:27:02.816Z,88.40
2023-10-06T02:29:30.855Z,88.40
2023-10-06T02:32:08.310Z,88.30
2023-10-06T02:34:40.461Z,88.20
2023-10-06T02:37:08.282Z,88.30
2023-10-06T02:39:38.102Z,88.30
2023-10-06T02:42:15.311Z,88.20
2023-10-06T02:44:43.374Z,88.20
2023-10-06T02:47:15.035Z,88.10
2023-10-06T02:49:49.168Z,88.10
2023-10-06T02:52:23.603Z,88.20
2023-10-06T02:55:06.148Z,88.10
2023-10-06T02:57:37.097Z,88.20
2023-10-06T03:00:24.180Z,88.20
2023-10-06T03:03:04.848Z,88.30
2023-10-06T03:05:39.899Z,88.50
2023-10-06T03:08:10.883Z,88.40
2023-10-06T03:10:45.435Z,88.40
2023-10-06T03:13:16.223Z,88.50
2023-10-06T03:15:47.627Z,88.50
2023-10-06T03:18:17.119Z,88.50
2023-10-06T03:20:51.308Z,88.50
2023-10-06T03:23:27.887Z,88.50
2023-10-06T03:25:55.729Z,88.50
2023-10-06T03:28:27.335Z,88.40
2023-10-06T03:30:54.380Z,88.50
2023-10-06T03:33:21.293Z,88.50
2023-10-06T03:35:50.065Z,88.50
2023-10-06T03:38:19.759Z,88.70
2023-10-06T03:40:53.016Z,88.50
2023-10-06T03:43:38.882Z,88.50
2023-10-06T03:46:05.836Z,88.50
2023-10-06T03:48:32.831Z,88.40
2023-10-06T03:51:03.315Z,89.00
2023-10-06T03:53:30.950Z,88.40
2023-10-06T03:55:58.810Z,88.40
2023-10-06T03:58:33.309Z,88.30
2023-10-06T04:01:08.564Z,88.20
2023-10-06T04:03:35.731Z,88.20
2023-10-06T04:06:05.476Z,88.10
2023-10-06T04:08:32.501Z,88.10
2023-10-06T04:10:59.594Z,88.10
2023-10-06T04:13:27.365Z,88.20
2023-10-06T04:15:54.987Z,88.20
2023-10-06T04:18:25.196Z,88.40
2023-10-06T04:20:54.175Z,88.10
2023-10-06T04:23:25.327Z,88.50
2023-10-06T04:25:56.647Z,88.50
2023-10-06T04:28:27.574Z,88.30
2023-10-06T04:30:55.648Z,88.60
2023-10-06T04:33:26.804Z,88.60
2023-10-06T04:35:57.005Z,88.60
2023-10-06T04:38:24.847Z,88.70
2023-10-06T04:40:54.892Z,88.70
2023-10-06T04:43:22.186Z,88.70
2023-10-06T04:45:49.432Z,88.70
2023-10-06T04:48:16.780Z,88.70
2023-10-06T04:50:43.943Z,88.70
2023-10-06T04:53:12.592Z,88.70
2023-10-06T04:55:41.118Z,88.70
2023-10-06T04:58:14.857Z,88.70
2023-10-06T05:00:42.440Z,88.70
2023-10-06T05:03:12.286Z,88.70
2023-10-06T05:05:39.884Z,88.70
2023-10-06T05:08:11.160Z,88.70
2023-10-06T05:10:38.590Z,88.70
2023-10-06T05:13:08.765Z,89.10
2023-10-06T05:15:36.841Z,88.80
2023-10-06T05:18:05.205Z,88.70
2023-10-06T05:20:36.552Z,88.80
2023-10-06T05:23:11.153Z,88.80
2023-10-06T05:25:40.394Z,88.70
2023-10-06T05:28:17.709Z,88.80
2023-10-06T05:30:45.770Z,88.90
2023-10-06T05:33:15.549Z,88.80
2023-10-06T05:35:43.942Z,88.90
2023-10-06T05:38:17.200Z,89.00
2023-10-06T05:40:47.750Z,88.90
2023-10-06T05:43:17.448Z,88.80
2023-10-06T05:45:54.164Z,88.90
2023-10-06T05:48:26.327Z,88.80
2023-10-06T05:51:02.525Z,88.90
2023-10-06T05:53:35.652Z,88.90
2023-10-06T05:56:04.360Z,88.90
2023-10-06T05:58:32.027Z,88.90
2023-10-06T06:01:06.485Z,88.90
2023-10-06T06:03:36.450Z,88.90
2023-10-06T06:06:10.029Z,88.90
2023-10-06T06:08:39.353Z,89.00
2023-10-06T06:11:07.381Z,87.90
2023-10-06T06:13:37.569Z,88.30
2023-10-06T06:16:06.800Z,87.70
2023-10-06T06:18:35.307Z,87.30
2023-10-06T06:21:04.271Z,87.00
2023-10-06T06:23:34.924Z,87.10
2023-10-06T06:26:02.500Z,87.00
2023-10-06T06:28:30.910Z,86.50
2023-10-06T06:31:05.425Z,86.50
2023-10-06T06:33:34.258Z,86.40
2023-10-06T06:36:06.674Z,86.40
2023-10-06T06:38:40.757Z,86.00
2023-10-06T06:41:09.691Z,86.00
2023-10-06T06:43:36.833Z,86.00
2023-10-06T06:46:03.824Z,85.90
2023-10-06T06:48:30.841Z,85.60
2023-10-06T06:51:01.126Z,85.70
2023-10-06T06:53:29.563Z,85.80
2023-10-06T06:55:56.582Z,85.60
2023-10-06T06:58:23.659Z,85.40
2023-10-06T07:00:50.990Z,85.20
2023-10-06T07:03:18.250Z,85.30
2023-10-06T07:05:45.250Z,85.40
2023-10-06T07:08:13.103Z,85.30
2023-10-06T07:10:48.019Z,85.20
2023-10-06T07:13:15.723Z,85.30
2023-10-06T07:15:43.041Z,85.20
2023-10-06T07:18:13.318Z,85.20
2023-10-06T07:20:40.376Z,85.30
2023-10-06T07:23:07.749Z,85.30
2023-10-06T07:25:34.820Z,85.10
2023-10-06T07:28:02.478Z,84.90
2023-10-06T07:30:35.839Z,85.00
2023-10-06T07:33:10.570Z,85.00
2023-10-06T07:36:03.855Z,85.00
2023-10-06T07:38:33.015Z,85.10
2023-10-06T07:41:01.028Z,85.00
2023-10-06T07:43:28.846Z,85.00
2023-10-06T07:45:57.216Z,85.10
2023-10-06T07:48:24.165Z,85.20
2023-10-06T07:50:52.841Z,85.20
2023-10-06T07:53:19.775Z,85.20
2023-10-06T07:55:46.805Z,85.20
2023-10-06T07:58:15.181Z,85.40
2023-10-06T08:00:43.425Z,85.30
2023-10-06T08:03:12.265Z,85.40
2023-10-06T08:05:42.011Z,85.50
2023-10-06T08:08:09.370Z,85.50
2023-10-06T08:10:36.767Z,85.50
2023-10-06T08:13:04.164Z,85.50
2023-10-06T08:15:33.930Z,85.40
2023-10-06T08:18:01.642Z,85.50
2023-10-06T08:20:29.267Z,85.50
2023-10-06T08:22:58.233Z,85.40
2023-10-06T08:25:27.372Z,85.50
2023-10-06T08:27:54.839Z,85.50
2023-10-06T08:30:22.566Z,85.60
2023-10-06T08:32:53.840Z,85.50
2023-10-06T08:35:22.009Z,85.50
2023-10-06T08:37:51.564Z,85.50
2023-10-06T08:40:28.327Z,85.60
2023-10-06T08:43:00.231Z,85.60
2023-10-06T08:45:29.224Z,85.50
2023-10-06T08:48:03.918Z,85.60
2023-10-06T08:50:34.050Z,85.60
2023-10-06T08:53:05.975Z,85.50
2023-10-06T08:55:33.735Z,85.60
2023-10-06T08:58:04.704Z,85.60
2023-10-06T09:00:36.588Z,85.50
2023-10-06T09:03:11.295Z,85.50
2023-10-06T09:05:45.778Z,85.50
2023-10-06T09:08:16.965Z,85.50
2023-10-06T09:10:57.603Z,85.60
2023-10-06T09:13:24.702Z,85.50
2023-10-06T09:16:00.767Z,85.50
2023-10-06T09:18:30.140Z,85.50
2023-10-06T09:21:17.622Z,85.50
2023-10-06T09:23:45.183Z,85.50
2023-10-06T09:26:20.313Z,85.50
2023-10-06T09:28:57.638Z,85.60
2023-10-06T09:31:46.279Z,85.60
2023-10-06T09:34:24.145Z,85.60
2023-10-06T09:36:52.310Z,85.60
2023-10-06T09:39:34.452Z,85.60
2023-10-06T09:42:09.289Z,85.60
2023-10-06T09:44:37.361Z,85.60
2023-10-06T09:47:06.259Z,85.50
2023-10-06T09:49:36.567Z,85.50
2023-10-06T09:52:08.257Z,85.60
2023-10-06T09:54:37.106Z,85.60
2023-10-06T09:57:05.172Z,85.60
2023-10-06T09:59:35.550Z,85.70
2023-10-06T10:04:52.592Z,85.60
2023-10-06T10:07:21.924Z,85.60
2023-10-06T10:09:49.279Z,86.30
2023-10-06T10:12:39.583Z,85.60
2023-10-06T10:15:13.237Z,85.60
2023-10-06T10:18:05.434Z,85.60
2023-10-06T10:20:33.888Z,85.60
2023-10-06T10:23:02.978Z,85.60
2023-10-06T10:25:40.187Z,85.50
2023-10-06T10:28:21.293Z,85.50
2023-10-06T10:31:01.641Z,85.60
2023-10-06T10:33:32.988Z,85.50
2023-10-06T10:36:18.875Z,85.60
2023-10-06T10:38:46.482Z,85.50
2023-10-06T10:41:14.452Z,85.60
2023-10-06T10:43:46.922Z,85.60
2023-10-06T10:46:14.280Z,85.60
2023-10-06T10:48:51.778Z,85.50
2023-10-06T10:51:24.100Z,85.50
2023-10-06T10:53:53.706Z,85.50
2023-10-06T10:56:20.683Z,85.50
2023-10-06T10:58:50.741Z,85.60
2023-10-06T11:01:31.389Z,85.80
2023-10-06T11:04:20.841Z,85.50
2023-10-06T11:06:51.876Z,85.60
2023-10-06T11:09:27.557Z,85.40
2023-10-06T11:12:20.375Z,85.60
2023-10-06T11:14:48.127Z,85.60
2023-10-06T11:17:15.572Z,85.60
2023-10-06T11:19:42.678Z,85.60
2023-10-06T11:22:10.767Z,85.50
2023-10-06T11:24:40.696Z,85.60
2023-10-06T11:27:24.009Z,85.60
2023-10-06T11:29:53.741Z,85.50
2023-10-06T11:32:23.045Z,85.40
2023-10-06T11:34:52.011Z,85.00
2023-10-06T11:37:21.854Z,84.70
2023-10-06T11:39:52.410Z,84.90
2023-10-06T11:42:25.898Z,84.70
2023-10-06T11:44:54.111Z,84.50
2023-10-06T11:47:27.483Z,84.60
2023-10-06T11:49:59.090Z,84.50
2023-10-06T11:52:28.198Z,84.50
2023-10-06T11:54:57.221Z,84.70
2023-10-06T11:58:06.273Z,84.70
2023-10-06T12:00:36.204Z,84.60
2023-10-06T12:03:03.579Z,84.70
2023-10-06T12:05:31.646Z,84.90
2023-10-06T12:08:05.791Z,85.00
2023-10-06T12:10:36.397Z,85.30
2023-10-06T12:13:12.034Z,85.50
2023-10-06T12:15:39.997Z,85.60
2023-10-06T12:18:07.871Z,85.70
2023-10-06T12:20:36.829Z,85.90
2023-10-06T12:23:03.980Z,86.00
2023-10-06T12:25:31.710Z,86.10
2023-10-06T12:28:01.328Z,86.20
2023-10-06T12:30:29.893Z,86.40
2023-10-06T12:32:59.886Z,86.30
2023-10-06T12:35:31.420Z,86.40
2023-10-06T12:37:59.433Z,86.50
2023-10-06T12:40:27.678Z,86.50
2023-10-06T12:42:54.688Z,86.60
2023-10-06T12:45:21.873Z,86.70
2023-10-06T12:47:50.012Z,86.80
2023-10-06T12:50:19.952Z,86.50
2023-10-06T12:52:53.301Z,86.30
2023-10-06T12:55:25.971Z,86.30
2023-10-06T12:57:55.617Z,86.10
2023-10-06T13:00:22.745Z,85.90
2023-10-06T13:02:50.709Z,85.80
2023-10-06T13:05:18.610Z,85.70
2023-10-06T13:07:48.148Z,85.60
2023-10-06T13:10:23.830Z,85.50
2023-10-06T13:12:51.652Z,85.40
2023-10-06T13:15:20.956Z,85.40
2023-10-06T13:17:50.181Z,85.40
2023-10-06T13:20:17.971Z,85.40
2023-10-06T13:22:48.875Z,85.30
2023-10-06T13:25:17.450Z,85.30
2023-10-06T13:27:49.287Z,85.30
2023-10-06T13:30:20.362Z,85.30
2023-10-06T13:32:53.091Z,85.30
2023-10-06T13:35:21.169Z,85.30
2023-10-06T13:37:51.701Z,85.30
2023-10-06T13:40:20.479Z,85.30
2023-10-06T13:42:49.143Z,85.30
2023-10-06T13:45:26.533Z,85.30
2023-10-06T13:47:55.853Z,85.40
2023-10-06T13:50:25.254Z,85.40
2023-10-06T13:52:52.665Z,85.40
2023-10-06T13:55:21.793Z,85.40
2023-10-06T13:57:53.620Z,85.50
2023-10-06T14:00:38.116Z,85.50
2023-10-06T14:03:08.471Z,85.50
2023-10-06T14:05:45.619Z,85.50
2023-10-06T14:08:15.398Z,85.60
2023-10-06T14:10:43.994Z,85.50
2023-10-06T14:13:17.352Z,85.50
2023-10-06T14:16:00.973Z,85.50
2023-10-06T14:18:31.402Z,86.10
2023-10-06T14:20:59.019Z,85.50
2023-10-06T14:23:31.384Z,85.50
2023-10-06T14:26:04.757Z,85.50
2023-10-06T14:28:31.820Z,85.60
2023-10-06T14:31:17.771Z,85.60
2023-10-06T14:33:59.158Z,85.60
2023-10-06T14:36:29.405Z,85.60
2023-10-06T14:39:15.586Z,85.70
2023-10-06T14:41:57.599Z,85.70
2023-10-06T14:44:44.103Z,85.70
2023-10-06T14:47:11.580Z,85.70
2023-10-06T14:49:44.556Z,85.60
2023-10-06T14:52:12.470Z,85.80
2023-10-06T14:54:39.953Z,85.80
2023-10-06T14:57:07.480Z,85.80
2023-10-06T14:59:35.549Z,85.90
2023-10-06T15:02:13.555Z,85.80
2023-10-06T15:04:41.995Z,85.90
2023-10-06T15:07:16.097Z,85.80
2023-10-06T15:09:43.466Z,85.80
2023-10-06T15:12:11.033Z,85.80
2023-10-06T15:14:38.830Z,85.80
2023-10-06T15:17:06.547Z,85.80
2023-10-06T15:19:37.766Z,85.80
2023-10-06T15:22:10.180Z,86.00
2023-10-06T15:24:38.772Z,86.10
2023-10-06T15:27:08.354Z,86.10
2023-10-06T15:29:36.905Z,86.20
2023-10-06T15:32:06.659Z,86.00
2023-10-06T15:34:37.701Z,85.90
2023-10-06T15:37:05.935Z,85.90
2023-10-06T15:39:33.722Z,85.80
2023-10-06T15:42:02.640Z,85.80
2023-10-06T15:44:29.728Z,85.80
2023-10-06T15:46:58.701Z,85.80
2023-10-06T15:49:26.204Z,85.80
2023-10-06T15:51:53.847Z,85.90
2023-10-06T15:54:21.198Z,85.90
2023-10-06T15:56:48.898Z,85.90
2023-10-06T15:59:17.564Z,85.90
2023-10-06T16:01:48.456Z,85.90
2023-10-06T16:04:16.334Z,86.00
2023-10-06T16:06:44.636Z,86.00
2023-10-06T16:09:18.162Z,86.00
2023-10-06T16:11:47.492Z,86.00
2023-10-06T16:14:17.265Z,86.10
2023-10-06T16:16:47.735Z,86.10
2023-10-06T16:19:15.770Z,86.10
2023-10-06T16:21:43.224Z,86.10
2023-10-06T16:24:14.523Z,86.10
2023-10-06T16:26:42.891Z,86.10
2023-10-06T16:29:11.722Z,86.10
2023-10-06T16:31:39.456Z,86.10
2023-10-06T16:34:06.452Z,86.10
2023-10-06T16:36:33.390Z,86.20
2023-10-06T16:39:00.549Z,86.20
2023-10-06T16:41:27.798Z,86.20
2023-10-06T16:43:57.303Z,86.20
2023-10-06T16:46:24.602Z,86.20
2023-10-06T16:48:51.753Z,86.20
2023-10-06T16:51:24.549Z,86.20
2023-10-06T16:53:52.673Z,86.10
2023-10-06T16:56:20.153Z,86.10
2023-10-06T16:58:47.841Z,86.10
2023-10-06T17:01:15.738Z,86.10
2023-10-06T17:03:43.186Z,86.10
2023-10-06T17:06:15.191Z,86.00
2023-10-06T17:08:42.336Z,86.10
2023-10-06T17:11:17.196Z,86.10
2023-10-06T17:13:46.405Z,86.00
2023-10-06T17:16:15.400Z,86.10
2023-10-06T17:18:43.085Z,86.00
2023-10-06T17:21:17.372Z,86.10
2023-10-06T17:23:45.720Z,86.10
2023-10-06T17:26:16.430Z,86.10
2023-10-06T17:28:43.585Z,86.00
2023-10-06T17:31:16.868Z,86.00
2023-10-06T17:33:44.285Z,86.00
2023-10-06T17:36:11.547Z,86.00
2023-10-06T17:38:38.579Z,86.00
2023-10-06T17:41:12.334Z,86.10
2023-10-06T17:43:39.765Z,86.00
2023-10-06T17:46:06.861Z,86.00
2023-10-06T17:48:33.950Z,86.00
2023-10-06T17:51:00.977Z,86.00
2023-10-06T17:53:28.139Z,86.00
2023-10-06T17:55:57.589Z,86.00
2023-10-06T17:58:24.818Z,86.00
2023-10-06T18:00:52.046Z,86.10
2023-10-06T18:03:19.776Z,86.00
2023-10-06T18:05:50.083Z,86.10
2023-10-06T18:08:17.770Z,86.10
2023-10-06T18:10:46.371Z,86.10
2023-10-06T18:13:13.623Z,86.10
2023-10-06T18:15:41.421Z,86.10
2023-10-06T18:18:09.278Z,86.10
2023-10-06T18:20:40.006Z,86.10
2023-10-06T18:23:08.043Z,86.10
2023-10-06T18:25:36.375Z,86.10
2023-10-06T18:28:04.584Z,86.10
2023-10-06T18:30:32.507Z,86.10
2023-10-06T18:32:59.821Z,86.10
2023-10-06T18:35:27.035Z,86.10
2023-10-06T18:37:55.752Z,86.10
2023-10-06T18:40:23.942Z,86.10
2023-10-06T18:42:51.324Z,86.10
2023-10-06T18:45:20.978Z,86.10
2023-10-06T18:47:47.948Z,86.10
2023-10-06T18:50:21.177Z,86.00
2023-10-06T18:52:49.151Z,86.10
2023-10-06T18:55:18.879Z,86.10
2023-10-06T18:57:47.039Z,86.10
2023-10-06T19:00:14.450Z,86.00
2023-10-06T19:02:42.793Z,86.10
2023-10-06T19:05:13.033Z,86.10
2023-10-06T19:07:40.165Z,86.00
2023-10-06T19:10:11.108Z,86.00
2023-10-06T19:12:39.347Z,86.00
2023-10-06T19:15:10.044Z,86.10
2023-10-06T19:17:38.461Z,86.20
2023-10-06T19:20:09.209Z,86.30
2023-10-06T19:22:39.065Z,86.40
2023-10-06T19:25:10.799Z,86.20
2023-10-06T19:27:39.324Z,86.20
2023-10-06T19:30:11.089Z,86.10
2023-10-06T19:32:39.093Z,86.10
2023-10-06T19:35:10.712Z,86.10
2023-10-06T19:37:42.208Z,86.10
2023-10-06T19:40:10.016Z,86.20
2023-10-06T19:42:38.455Z,87.30
2023-10-06T19:45:06.627Z,87.60
2023-10-06T19:47:35.101Z,87.40
2023-10-06T19:50:13.159Z,85.10
2023-10-06T19:52:41.608Z,81.80
2023-10-06T19:55:11.612Z,79.80
2023-10-06T19:57:40.071Z,78.50
2023-10-06T20:00:14.002Z,77.80
2023-10-06T20:02:48.216Z,77.30
2023-10-06T20:05:15.179Z,76.60
2023-10-06T20:07:42.685Z,76.00
2023-10-06T20:10:10.159Z,75.20
2023-10-06T20:12:37.327Z,75.00
2023-10-06T20:15:08.435Z,74.90
2023-10-06T20:17:36.268Z,74.20
2023-10-06T20:20:03.584Z,74.90
2023-10-06T20:22:32.188Z,74.30
2023-10-06T20:24:59.153Z,74.00
2023-10-06T20:27:26.058Z,73.70
2023-10-06T20:29:55.745Z,73.60
2023-10-06T20:32:22.635Z,73.50
2023-10-06T20:34:51.338Z,73.80
2023-10-06T20:37:18.434Z,74.40
2023-10-06T20:39:45.597Z,75.00
2023-10-06T20:42:12.601Z,74.70
2023-10-06T20:44:39.527Z,74.70
2023-10-06T20:47:06.541Z,74.80
2023-10-06T20:49:33.523Z,74.90
2023-10-06T20:52:00.561Z,75.20
2023-10-06T20:54:31.636Z,75.80
2023-10-06T20:56:58.537Z,76.00
2023-10-06T20:59:25.704Z,76.10
2023-10-06T21:01:53.521Z,76.00
2023-10-06T21:04:23.331Z,74.80
2023-10-06T21:06:50.267Z,76.30
2023-10-06T21:09:19.278Z,77.40
2023-10-06T21:11:46.203Z,76.00
2023-10-06T21:14:17.640Z,74.60
2023-10-06T21:16:46.441Z,74.00
2023-10-06T21:19:13.573Z,73.70
2023-10-06T21:21:40.643Z,74.00
2023-10-06T21:24:10.246Z,73.20
2023-10-06T21:26:38.613Z,71.70
2023-10-06T21:29:07.696Z,70.20
2023-10-06T21:31:37.129Z,68.90
2023-10-06T21:34:04.246Z,68.70
2023-10-06T21:36:31.938Z,68.10
2023-10-06T21:38:59.383Z,72.50
2023-10-06T21:41:26.317Z,74.90
2023-10-06T21:43:54.875Z,75.70
2023-10-06T21:46:22.939Z,75.50
2023-10-06T21:48:50.755Z,76.40
2023-10-06T21:51:18.205Z,77.40
2023-10-06T21:53:46.615Z,78.20
2023-10-06T21:56:13.663Z,78.90
2023-10-06T21:58:41.520Z,79.10
2023-10-06T22:01:14.906Z,79.60
2023-10-06T22:03:42.551Z,80.00
2023-10-06T22:06:10.002Z,80.70
2023-10-06T22:08:36.980Z,80.90
2023-10-06T22:11:05.755Z,81.20
2023-10-06T22:13:35.608Z,81.40
2023-10-06T22:16:02.722Z,81.70
2023-10-06T22:18:29.678Z,82.00
2023-10-06T22:20:56.673Z,82.10
2023-10-06T22:23:23.957Z,82.40
2023-10-06T22:25:52.756Z,82.60
2023-10-06T22:28:21.321Z,82.80
2023-10-06T22:30:50.014Z,82.90
2023-10-06T22:33:17.604Z,83.00
2023-10-06T22:35:44.643Z,83.10
2023-10-06T22:38:11.868Z,83.20
2023-10-06T22:40:39.417Z,83.30
2023-10-06T22:43:07.987Z,83.60
2023-10-06T22:45:38.501Z,83.80
2023-10-06T22:48:05.743Z,84.10
2023-10-06T22:50:32.709Z,84.10
2023-10-06T22:53:00.151Z,84.30
2023-10-06T22:55:27.499Z,84.40
2023-10-06T22:57:54.576Z,84.70
2023-10-06T23:00:21.869Z,84.70
2023-10-06T23:02:49.460Z,84.90
2023-10-06T23:05:16.807Z,84.90
2023-10-06T23:07:44.817Z,84.90
2023-10-06T23:10:14.052Z,85.20
2023-10-06T23:12:41.720Z,85.30
2023-10-06T23:15:10.069Z,85.40
2023-10-06T23:17:41.835Z,85.60
2023-10-06T23:20:24.190Z,85.90
2023-10-06T23:23:15.845Z,86.00
2023-10-06T23:25:48.276Z,86.00
2023-10-06T23:28:15.483Z,86.40
2023-10-06T23:30:42.540Z,86.50
2023-10-06T23:33:12.527Z,86.60
2023-10-06T23:35:41.239Z,86.50
2023-10-06T23:38:14.010Z,86.30
2023-10-06T23:40:43.532Z,86.80
2023-10-06T23:43:10.789Z,86.60
2023-10-06T23:45:38.259Z,86.90
2023-10-06T23:48:11.352Z,86.90
2023-10-06T23:50:42.703Z,87.20
2023-10-06T23:53:10.419Z,87.30
2023-10-06T23:55:43.489Z,87.30
2023-10-06T23:58:17.777Z,87.60
